createdAt,value
2023-03-20T00:13:35.316Z,6.55
2023-03-20T00:19:02.026Z,13.57
2023-03-20T00:24:07.755Z,13.80
2023-03-20T00:29:32.825Z,9.25
2023-03-20T00:51:50.298Z,9.07
2023-03-20T00:57:22.040Z,9.98
2023-03-20T01:02:32.928Z,8.35
2023-03-20T01:07:41.084Z,5.10
2023-03-20T01:12:50.308Z,11.13
2023-03-20T01:18:06.536Z,8.23
2023-03-20T01:23:23.387Z,5.50
2023-03-20T01:28:48.860Z,5.95
2023-03-20T01:34:02.642Z,8.45
2023-03-20T01:39:18.937Z,9.30
2023-03-20T01:44:35.398Z,14.30
2023-03-20T01:50:15.275Z,5.35
2023-03-20T01:55:27.847Z,10.45
2023-03-20T02:01:06.819Z,6.05
2023-03-20T02:06:29.245Z,3.58
2023-03-20T02:11:43.228Z,6.40
2023-03-20T02:16:58.917Z,5.03
2023-03-20T02:22:31.662Z,11.35
2023-03-20T02:27:55.577Z,10.77
2023-03-20T02:33:52.438Z,13.27
2023-03-20T02:39:40.417Z,7.50
2023-03-20T02:45:16.196Z,17.48
2023-03-20T02:50:52.650Z,9.77
2023-03-20T02:56:41.914Z,10.25
2023-03-20T03:01:57.491Z,16.00
2023-03-20T03:07:05.239Z,12.15
2023-03-20T03:12:19.713Z,9.73
2023-03-20T03:17:28.911Z,13.48
2023-03-20T03:22:37.450Z,7.93
2023-03-20T03:28:07.932Z,9.27
2023-03-20T03:33:29.725Z,8.45
2023-03-20T03:39:18.963Z,14.18
2023-03-20T03:44:59.341Z,10.25
2023-03-20T03:50:30.178Z,5.65
2023-03-20T03:55:45.977Z,7.70
2023-03-20T04:00:54.972Z,8.20
2023-03-20T04:06:12.854Z,4.97
2023-03-20T04:11:27.614Z,11.10
2023-03-20T04:16:35.964Z,10.57
2023-03-20T04:21:42.710Z,11.95
2023-03-20T04:26:45.455Z,6.60
2023-03-20T04:31:50.476Z,8.15
2023-03-20T04:37:04.386Z,7.95
2023-03-20T04:42:21.806Z,7.80
2023-03-20T04:47:36.198Z,8.40
2023-03-20T04:52:42.097Z,13.05
2023-03-20T04:57:45.516Z,10.05
2023-03-20T05:02:48.758Z,12.07
2023-03-20T05:07:55.600Z,6.85
2023-03-20T05:13:11.768Z,12.57
2023-03-20T05:18:32.476Z,8.40
2023-03-20T05:23:48.489Z,13.65
2023-03-20T05:28:59.898Z,11.88
2023-03-20T05:34:23.310Z,9.25
2023-03-20T05:39:49.687Z,7.75
2023-03-20T05:45:12.954Z,9.63
2023-03-20T05:50:25.525Z,7.15
2023-03-20T05:55:51.536Z,6.13
2023-03-20T06:01:16.993Z,8.60
2023-03-20T06:06:38.718Z,11.45
2023-03-20T06:11:42.997Z,9.90
2023-03-20T06:16:47.082Z,16.48
2023-03-20T06:21:53.088Z,14.88
2023-03-20T06:26:57.429Z,7.93
2023-03-20T06:32:01.913Z,8.73
2023-03-20T06:37:07.296Z,14.10
2023-03-20T06:42:15.049Z,11.75
2023-03-20T06:47:19.121Z,10.32
2023-03-20T06:52:22.736Z,15.30
2023-03-20T06:57:42.946Z,6.00
2023-03-20T07:02:45.728Z,3.42
2023-03-20T07:07:50.329Z,13.52
2023-03-20T07:12:52.510Z,7.68
2023-03-20T07:17:55.087Z,9.55
2023-03-20T07:22:57.933Z,12.65
2023-03-20T07:28:02.459Z,11.15
2023-03-20T07:33:04.982Z,12.85
2023-03-20T07:38:09.152Z,16.10
2023-03-20T07:43:21.400Z,14.73
2023-03-20T07:48:32.493Z,8.95
2023-03-20T07:53:34.810Z,12.38
2023-03-20T07:58:37.019Z,15.98
2023-03-20T08:03:39.748Z,6.28
2023-03-20T08:08:42.157Z,8.70
2023-03-20T08:13:44.707Z,13.00
2023-03-20T08:18:47.077Z,13.35
2023-03-20T08:23:49.245Z,9.68
2023-03-20T08:28:52.667Z,20.73
2023-03-20T08:33:56.672Z,11.88
2023-03-20T08:38:58.799Z,14.85
2023-03-20T08:44:01.623Z,15.80
2023-03-20T08:49:05.245Z,17.85
2023-03-20T08:54:07.328Z,14.02
2023-03-20T08:59:09.511Z,9.75
2023-03-20T09:04:13.218Z,8.75
2023-03-20T09:09:16.310Z,13.10
2023-03-20T09:14:18.512Z,11.10
2023-03-20T09:19:21.190Z,11.77
2023-03-20T09:24:23.564Z,9.75
2023-03-20T09:29:26.028Z,7.10
2023-03-20T09:34:29.471Z,4.13
2023-03-20T09:39:31.709Z,9.70
2023-03-20T09:44:36.782Z,12.85
2023-03-20T09:49:39.115Z,6.75
2023-03-20T09:54:54.103Z,3.78
2023-03-20T10:00:10.413Z,4.90
2023-03-20T10:05:23.350Z,2.22
2023-03-20T10:10:49.056Z,3.97
2023-03-20T10:15:57.425Z,4.82
2023-03-20T10:21:14.204Z,4.25
2023-03-20T10:26:21.742Z,2.72
2023-03-20T10:31:47.749Z,4.78
2023-03-20T10:37:05.809Z,4.43
2023-03-20T10:42:27.902Z,7.35
2023-03-20T10:47:36.601Z,4.05
2023-03-20T10:52:41.763Z,1.70
2023-03-20T10:57:56.514Z,6.30
2023-03-20T11:02:58.624Z,6.20
2023-03-20T11:08:06.780Z,4.53
2023-03-20T11:13:32.448Z,3.40
2023-03-20T11:18:34.993Z,11.23
2023-03-20T11:23:41.215Z,3.78
2023-03-20T11:28:56.548Z,3.75
2023-03-20T11:34:19.972Z,5.80
2023-03-20T11:39:32.636Z,3.95
2023-03-20T11:44:44.109Z,2.50
2023-03-20T11:54:58.744Z,6.05
2023-03-20T12:00:26.202Z,2.83
2023-03-20T12:05:43.666Z,4.35
2023-03-20T12:11:04.987Z,4.05
2023-03-20T12:16:25.861Z,1.63
2023-03-20T12:22:18.591Z,3.08
2023-03-20T12:27:34.873Z,3.28
2023-03-20T12:32:54.512Z,11.07
2023-03-20T12:38:00.677Z,1.48
2023-03-20T12:43:23.360Z,5.35
2023-03-20T12:49:05.220Z,3.55
2023-03-20T12:54:59.636Z,6.38
2023-03-20T13:00:11.958Z,7.22
2023-03-20T13:05:47.946Z,9.77
2023-03-20T13:11:07.706Z,9.27
2023-03-20T13:16:37.873Z,3.95
2023-03-20T13:21:58.741Z,4.63
2023-03-20T13:27:20.032Z,2.10
2023-03-20T13:32:29.738Z,4.10
2023-03-20T13:37:45.033Z,4.78
2023-03-20T13:43:05.493Z,6.53
2023-03-20T13:48:45.117Z,2.55
2023-03-20T13:53:53.380Z,4.40
2023-03-20T13:59:04.947Z,3.30
2023-03-20T14:04:18.945Z,9.60
2023-03-20T14:09:30.887Z,6.18
2023-03-20T14:14:54.065Z,4.75
2023-03-20T14:20:13.858Z,4.18
2023-03-20T14:25:21.401Z,8.60
2023-03-20T14:30:32.553Z,8.93
2023-03-20T14:35:43.200Z,3.67
2023-03-20T14:41:20.275Z,3.63
2023-03-20T14:46:52.756Z,10.30
2023-03-20T14:52:02.608Z,3.67
2023-03-20T14:57:29.247Z,7.25
2023-03-20T15:02:37.464Z,6.38
2023-03-20T15:07:45.904Z,9.00
2023-03-20T15:12:53.346Z,4.97
2023-03-20T15:18:05.917Z,6.40
2023-03-20T15:23:14.251Z,5.18
2023-03-20T15:28:29.347Z,2.40
2023-03-20T15:33:40.741Z,2.70
2023-03-20T15:38:47.283Z,4.65
2023-03-20T15:44:03.557Z,5.90
2023-03-20T15:49:07.367Z,1.08
2023-03-20T15:54:14.035Z,3.83
2023-03-20T15:59:23.146Z,4.18
2023-03-20T16:04:31.958Z,8.98
2023-03-20T16:09:47.515Z,5.90
2023-03-20T16:14:54.560Z,4.93
2023-03-20T16:20:11.813Z,4.05
2023-03-20T16:25:19.541Z,7.32
2023-03-20T16:30:34.831Z,3.22
2023-03-20T16:35:43.616Z,5.30
2023-03-20T16:40:51.426Z,4.50
2023-03-20T16:45:58.072Z,4.00
2023-03-20T16:51:24.768Z,9.05
2023-03-20T16:56:35.092Z,0.95
2023-03-20T17:01:43.705Z,6.63
2023-03-20T17:07:01.581Z,4.22
2023-03-20T17:12:20.187Z,9.82
2023-03-20T17:17:25.282Z,7.72
2023-03-20T17:22:35.553Z,10.07
2023-03-20T17:27:39.334Z,8.30
2023-03-20T17:32:45.179Z,11.60
2023-03-20T17:37:53.532Z,5.50
2023-03-20T17:43:07.230Z,15.88
2023-03-20T17:48:23.932Z,10.00
2023-03-20T17:53:30.083Z,9.15
2023-03-20T17:58:35.719Z,11.25
2023-03-20T18:03:49.493Z,21.45
2023-03-20T18:08:58.699Z,27.27
2023-03-20T18:14:02.161Z,20.48
2023-03-20T18:19:10.080Z,17.95
2023-03-20T18:24:15.599Z,23.38
2023-03-20T18:29:20.957Z,57.70
2023-03-20T18:34:24.187Z,31.73
2023-03-20T18:39:31.780Z,36.70
2023-03-20T18:44:36.281Z,42.85
2023-03-20T18:49:43.116Z,23.65
2023-03-20T18:54:48.394Z,25.25
2023-03-20T18:59:52.163Z,24.90
2023-03-20T19:04:55.943Z,30.80
2023-03-20T19:09:59.260Z,45.13
2023-03-20T19:15:01.973Z,26.77
2023-03-20T19:20:22.052Z,23.75
2023-03-20T19:25:25.658Z,7.10
2023-03-20T19:30:39.556Z,8.18
2023-03-20T19:36:01.752Z,11.43
2023-03-20T19:46:45.495Z,10.80
2023-03-20T19:51:50.911Z,11.77
2023-03-20T19:56:57.746Z,8.15
2023-03-20T20:02:02.279Z,20.50
2023-03-20T20:07:53.299Z,13.10
2023-03-20T20:12:40.030Z,12.98
2023-03-20T20:17:42.646Z,7.53
2023-03-20T20:22:46.294Z,14.45
2023-03-20T20:27:54.371Z,5.78
2023-03-20T20:38:40.834Z,8.85
2023-03-20T20:44:11.878Z,4.53
2023-03-20T20:49:18.780Z,3.95
2023-03-20T20:54:22.200Z,10.07
2023-03-20T20:59:24.496Z,10.13
2023-03-20T21:04:27.706Z,7.72
2023-03-20T21:09:30.365Z,5.07
2023-03-20T21:14:32.870Z,6.70
2023-03-20T21:19:39.082Z,8.27
2023-03-20T21:24:41.616Z,7.88
2023-03-20T21:30:09.699Z,10.13
2023-03-20T21:35:15.764Z,17.42
2023-03-20T21:40:26.415Z,16.77
2023-03-20T21:51:23.524Z,26.60
2023-03-20T22:02:32.489Z,17.92
2023-03-20T22:08:48.629Z,17.83
2023-03-20T22:46:56.591Z,18.23
2023-03-20T22:52:19.653Z,11.93
2023-03-20T22:57:38.813Z,10.68
2023-03-20T23:02:44.873Z,8.65
2023-03-20T23:08:31.464Z,13.35
2023-03-20T23:13:42.638Z,20.25
2023-03-20T23:18:45.481Z,8.30
2023-03-20T23:23:48.432Z,8.95
2023-03-20T23:28:55.777Z,5.10
2023-03-20T23:34:00.800Z,11.48
2023-03-20T23:39:12.039Z,8.07
2023-03-20T23:44:15.562Z,14.45
2023-03-20T23:49:17.943Z,10.32
2023-03-20T23:54:20.799Z,14.68
2023-03-20T23:59:23.398Z,10.05
